Time;durP1;ratioP1;P1;durP2;ratioP2;P2;SDS_P1;SDS_P2;PMS_P1;PMS_P2;Temp;Humidity;BMP_temperature;BMP_pressure;BME280_temperature;BME280_humidity;BME280_pressure;Samples;Min_cycle;Max_cycle;Signal;HPM_P1;HPM_P2
2022/07/07 00:01:53;;;;;;;;;;;;;;;;;;5022178;28;19926;-80
2022/07/07 00:04:19;;;;;;;;;;;;;;;;;;5022705;28;19965;-78
2022/07/07 00:06:46;;;;;;;;;;;;;;;;;;5023977;28;20000;-79
2022/07/07 00:09:12;;;;;;;;;;;;;;;;;;5022003;28;20254;-79
2022/07/07 00:11:39;;;;;;;;;;;;;;;;;;5020822;28;19932;-79
2022/07/07 00:14:07;;;;;;;;;;;;;;;;;;5020115;28;19925;-79
2022/07/07 00:16:33;;;;;;;;;;;;;;;;;;5020579;28;20106;-80
2022/07/07 00:19:02;;;;;;;;;;;;;;;;;;5021023;28;19972;-79
2022/07/07 00:21:28;;;;;;;;;;;;;;;;;;5019466;28;19925;-79
2022/07/07 00:23:55;;;;;;;;;;;;;;;;;;5019518;28;19975;-79
2022/07/07 00:26:21;;;;;;;;;;;;;;;;;;5023561;28;19993;-79
2022/07/07 00:28:49;;;;;;;;;;;;;;;;;;5020914;28;19987;-79
2022/07/07 00:31:15;;;;;;;;;;;;;;;;;;5018276;28;20032;-80
2022/07/07 00:33:42;;;;;;;;;;;;;;;;;;5018688;28;19957;-80
2022/07/07 00:36:10;;;;;;;;;;;;;;;;;;5020480;28;19925;-80
2022/07/07 00:38:36;;;;;;;;;;;;;;;;;;5021831;28;20414;-79
2022/07/07 00:41:03;;;;;;;;;;;;;;;;;;5021152;28;19969;-79
2022/07/07 00:43:35;;;;;;;;;;;;;;;;;;5049537;23;20024;-77
2022/07/07 00:46:02;;;;;;;;;;;;;;;;;;5015933;28;19929;-79
2022/07/07 00:48:29;;;;;;;;;;;;;;;;;;5016200;28;19976;-80
2022/07/07 00:50:56;;;;;;;;;;;;;;;;;;5015560;28;20012;-79
2022/07/07 00:53:24;;;;;;;;;;;;;;;;;;5015557;28;20364;-79
2022/07/07 00:55:50;;;;;;;;;;;;;;;;;;5015703;28;20033;-79
2022/07/07 00:58:17;;;;;;;;;;;;;;;;;;5015794;28;19925;-79
2022/07/07 01:00:43;;;;;;;;;;;;;;;;;;5015690;28;19972;-81
2022/07/07 01:03:10;;;;;;;;;;;;;;;;;;5015933;28;20020;-79
2022/07/07 01:05:37;;;;;;;;;;;;;;;;;;5015815;28;19969;-78
2022/07/07 01:08:04;;;;;;;;;;;;;;;;;;5015823;28;20597;-77
2022/07/07 01:10:32;;;;;;;;;;;;;;;;;;5015325;28;20284;-78
2022/07/07 01:13:02;;;;;;;;;;;;;;;;;;5015791;28;20016;-79
2022/07/07 01:15:28;;;;;;;;;;;;;;;;;;5015556;28;20395;-79
2022/07/07 01:17:55;;;;;;;;;;;;;;;;;;5015701;28;19969;-78
2022/07/07 01:20:22;;;;;;;;;;;;;;;;;;5014887;28;20376;-79
2022/07/07 01:22:51;;;;;;;;;;;;;;;;;;5015371;28;19925;-79
2022/07/07 01:25:17;;;;;;;;;;;;;;;;;;5015561;28;20016;-79
2022/07/07 01:27:44;;;;;;;;;;;;;;;;;;5015184;28;20434;-78
2022/07/07 01:30:11;;;;;;;;;;;;;;;;;;5014871;28;20403;-80
2022/07/07 01:32:37;;;;;;;;;;;;;;;;;;5015248;28;20021;-78
2022/07/07 01:35:04;;;;;;;;;;;;;;;;;;5015046;28;20021;-78
2022/07/07 01:37:31;;;;;;;;;;;;;;;;;;5015188;28;20459;-79
2022/07/07 01:39:58;;;;;;;;;;;;;;;;;;5015224;28;20024;-79
2022/07/07 01:42:25;;;;;;;;;;;;;;;;;;5015264;28;20020;-79
2022/07/07 01:44:51;;;;;;;;;;;;;;;;;;5014882;28;19926;-78
2022/07/07 01:47:19;;;;;;;;;;;;;;;;;;5015365;28;20001;-79
2022/07/07 01:49:45;;;;;;;;;;;;;;;;;;5014784;28;19925;-79
2022/07/07 01:52:12;;;;;;;;;;;;;;;;;;5015222;28;19980;-78
2022/07/07 01:54:39;;;;;;;;;;;;;;;;;;5014464;28;20333;-78
2022/07/07 01:57:07;;;;;;;;;;;;;;;;;;5015451;28;20369;-80
2022/07/07 01:59:34;;;;;;;;;;;;;;;;;;5015615;28;19972;-80
2022/07/07 02:02:00;;;;;;;;;;;;;;;;;;5015877;28;20008;-79
2022/07/07 02:04:27;;;;;;;;;;;;;;;;;;5015846;28;20398;-78
2022/07/07 02:06:53;;;;;;;;;;;;;;;;;;5016149;28;19944;-78
2022/07/07 02:09:20;;;;;;;;;;;;;;;;;;5015385;28;19925;-79
2022/07/07 02:11:46;;;;;;;;;;;;;;;;;;5019985;28;19925;-80
2022/07/07 02:14:14;;;;;;;;;;;;;;;;;;5017483;28;19987;-79
2022/07/07 02:16:41;;;;;;;;;;;;;;;;;;5015444;28;20023;-80
2022/07/07 02:19:07;;;;;;;;;;;;;;;;;;5015341;28;19925;-79
2022/07/07 02:21:34;;;;;;;;;;;;;;;;;;5021768;28;19925;-81
2022/07/07 02:24:01;;;;;;;;;;;;;;;;;;5018555;28;19976;-78
2022/07/07 02:26:27;;;;;;;;;;;;;;;;;;5016991;28;19969;-78
2022/07/07 02:28:54;;;;;;;;;;;;;;;;;;5016839;28;20016;-78
2022/07/07 02:31:22;;;;;;;;;;;;;;;;;;5016149;28;20388;-79
2022/07/07 02:33:49;;;;;;;;;;;;;;;;;;5016778;28;20403;-78
2022/07/07 02:36:16;;;;;;;;;;;;;;;;;;5014067;28;20387;-78
2022/07/07 02:38:42;;;;;;;;;;;;;;;;;;5013784;28;19964;-78
2022/07/07 02:41:09;;;;;;;;;;;;;;;;;;5013919;28;19976;-79
2022/07/07 02:43:35;;;;;;;;;;;;;;;;;;5014863;28;20356;-79
2022/07/07 02:46:03;;;;;;;;;;;;;;;;;;5015099;28;19971;-78
2022/07/07 02:48:31;;;;;;;;;;;;;;;;;;5014325;28;19925;-78
2022/07/07 02:50:58;;;;;;;;;;;;;;;;;;5014356;28;20024;-79
2022/07/07 02:53:24;;;;;;;;;;;;;;;;;;5014559;28;19925;-78
2022/07/07 02:55:51;;;;;;;;;;;;;;;;;;5014702;28;20028;-78
2022/07/07 02:58:19;;;;;;;;;;;;;;;;;;5014269;28;19968;-81
2022/07/07 03:00:46;;;;;;;;;;;;;;;;;;5014072;28;19926;-81
2022/07/07 03:03:12;;;;;;;;;;;;;;;;;;5014587;28;19929;-79
2022/07/07 03:05:41;;;;;;;;;;;;;;;;;;5013811;28;19972;-76
2022/07/07 03:08:07;;;;;;;;;;;;;;;;;;5013721;28;19929;-77
2022/07/07 03:10:34;;;;;;;;;;;;;;;;;;5013083;28;20281;-78
2022/07/07 03:13:00;;;;;;;;;;;;;;;;;;5013825;28;20019;-79
2022/07/07 03:15:27;;;;;;;;;;;;;;;;;;5014241;28;20016;-76
2022/07/07 03:17:53;;;;;;;;;;;;;;;;;;5012983;28;19969;-78
2022/07/07 03:20:20;;;;;;;;;;;;;;;;;;5012796;28;19980;-79
2022/07/07 03:22:47;;;;;;;;;;;;;;;;;;5013612;28;20038;-79
2022/07/07 03:25:14;;;;;;;;;;;;;;;;;;5013681;28;19980;-79
2022/07/07 03:27:41;;;;;;;;;;;;;;;;;;5014521;28;19926;-79
2022/07/07 03:30:08;;;;;;;;;;;;;;;;;;5014047;28;19948;-78
2022/07/07 03:32:35;;;;;;;;;;;;;;;;;;5013803;28;19965;-79
2022/07/07 03:35:02;;;;;;;;;;;;;;;;;;5013918;28;19981;-79
2022/07/07 03:37:29;;;;;;;;;;;;;;;;;;5014618;28;19999;-80
2022/07/07 03:39:57;;;;;;;;;;;;;;;;;;5015021;28;20519;-80
2022/07/07 03:42:23;;;;;;;;;;;;;;;;;;5014528;28;19953;-80
2022/07/07 03:44:50;;;;;;;;;;;;;;;;;;5012789;28;19926;-79
2022/07/07 03:47:16;;;;;;;;;;;;;;;;;;5013469;28;19968;-77
2022/07/07 03:49:43;;;;;;;;;;;;;;;;;;5013769;28;19960;-78
2022/07/07 03:52:09;;;;;;;;;;;;;;;;;;5013810;28;20020;-80
2022/07/07 03:54:36;;;;;;;;;;;;;;;;;;5013685;28;19971;-79
2022/07/07 03:57:04;;;;;;;;;;;;;;;;;;5013736;28;20418;-78
2022/07/07 03:59:30;;;;;;;;;;;;;;;;;;5013363;28;20452;-77
2022/07/07 04:01:57;;;;;;;;;;;;;;;;;;5013595;28;20012;-78
2022/07/07 04:04:23;;;;;;;;;;;;;;;;;;5013541;28;19961;-79
2022/07/07 04:06:50;;;;;;;;;;;;;;;;;;5013230;28;19926;-78
2022/07/07 04:09:16;;;;;;;;;;;;;;;;;;5012679;28;19999;-81
2022/07/07 04:11:42;;;;;;;;;;;;;;;;;;5013155;28;19973;-79
2022/07/07 04:14:10;;;;;;;;;;;;;;;;;;5013045;28;20032;-79
2022/07/07 04:16:37;;;;;;;;;;;;;;;;;;5013399;28;19969;-78
2022/07/07 04:19:03;;;;;;;;;;;;;;;;;;5015666;28;20016;-79
2022/07/07 04:21:30;;;;;;;;;;;;;;;;;;5017398;28;20367;-78
2022/07/07 04:23:56;;;;;;;;;;;;;;;;;;5017700;28;20012;-78
2022/07/07 04:26:23;;;;;;;;;;;;;;;;;;5017569;28;19976;-80
2022/07/07 04:28:49;;;;;;;;;;;;;;;;;;5017634;28;19925;-79
2022/07/07 04:31:17;;;;;;;;;;;;;;;;;;5016457;28;20012;-79
2022/07/07 04:33:43;;;;;;;;;;;;;;;;;;5017430;28;20005;-79
2022/07/07 04:36:11;;;;;;;;;;;;;;;;;;5016596;28;20019;-79
2022/07/07 04:38:37;;;;;;;;;;;;;;;;;;5016830;28;19979;-80
2022/07/07 04:41:04;;;;;;;;;;;;;;;;;;5017454;28;19925;-78
2022/07/07 04:43:30;;;;;;;;;;;;;;;;;;5017540;28;19992;-79
2022/07/07 04:45:57;;;;;;;;;;;;;;;;;;5016787;28;19960;-78
2022/07/07 04:48:25;;;;;;;;;;;;;;;;;;5017460;28;19983;-81
2022/07/07 04:50:51;;;;;;;;;;;;;;;;;;5018989;28;19995;-81
2022/07/07 04:53:18;;;;;;;;;;;;;;;;;;5023403;28;19937;-80
2022/07/07 04:55:44;;;;;;;;;;;;;;;;;;5021267;28;20376;-81
2022/07/07 04:58:11;;;;;;;;;;;;;;;;;;5021936;28;20371;-81
2022/07/07 05:00:37;;;;;;;;;;;;;;;;;;5020686;28;19952;-79
2022/07/07 05:03:04;;;;;;;;;;;;;;;;;;5019565;28;20372;-79
2022/07/07 05:05:32;;;;;;;;;;;;;;;;;;5015467;28;20364;-78
2022/07/07 05:07:58;;;;;;;;;;;;;;;;;;5016940;28;19967;-77
2022/07/07 05:10:25;;;;;;;;;;;;;;;;;;5016324;28;19925;-81
2022/07/07 05:12:52;;;;;;;;;;;;;;;;;;5017167;28;20016;-80
2022/07/07 05:15:18;;;;;;;;;;;;;;;;;;5018956;28;19926;-81
2022/07/07 05:17:44;;;;;;;;;;;;;;;;;;5016982;28;19925;-80
2022/07/07 05:20:11;;;;;;;;;;;;;;;;;;5017917;28;19971;-80
2022/07/07 05:22:39;;;;;;;;;;;;;;;;;;5019454;28;19960;-81
2022/07/07 05:25:06;;;;;;;;;;;;;;;;;;5022217;28;19976;-80
2022/07/07 05:27:32;;;;;;;;;;;;;;;;;;5019545;28;19930;-82
2022/07/07 05:29:59;;;;;;;;;;;;;;;;;;5019834;28;19925;-80
2022/07/07 05:32:26;;;;;;;;;;;;;;;;;;5019134;28;20019;-80
2022/07/07 05:34:52;;;;;;;;;;;;;;;;;;5018495;28;20431;-80
2022/07/07 05:37:18;;;;;;;;;;;;;;;;;;5017684;28;19926;-80
2022/07/07 05:39:46;;;;;;;;;;;;;;;;;;5029975;28;19937;-79
2022/07/07 05:42:13;;;;;;;;;;;;;;;;;;5034042;28;19948;-79
2022/07/07 05:44:41;;;;;;;;;;;;;;;;;;5031675;28;19932;-80
2022/07/07 05:47:07;;;;;;;;;;;;;;;;;;5022384;28;20513;-80
2022/07/07 05:49:34;;;;;;;;;;;;;;;;;;5018232;28;19965;-80
2022/07/07 05:52:00;;;;;;;;;;;;;;;;;;5018795;28;19973;-80
2022/07/07 05:54:27;;;;;;;;;;;;;;;;;;5018633;28;19948;-79
2022/07/07 05:56:54;;;;;;;;;;;;;;;;;;5017254;28;19973;-80
2022/07/07 05:59:21;;;;;;;;;;;;;;;;;;5016611;28;19925;-80
2022/07/07 06:01:47;;;;;;;;;;;;;;;;;;5015286;28;19992;-79
2022/07/07 06:04:14;;;;;;;;;;;;;;;;;;5016122;28;20339;-80
2022/07/07 06:06:40;;;;;;;;;;;;;;;;;;5016155;28;19929;-80
2022/07/07 06:09:07;;;;;;;;;;;;;;;;;;5016092;28;20308;-80
2022/07/07 06:11:33;;;;;;;;;;;;;;;;;;5015275;28;19973;-80
2022/07/07 06:14:01;;;;;;;;;;;;;;;;;;5015788;28;20044;-80
2022/07/07 06:16:41;;;;;;;;;;;;;;;;;;5016364;28;19952;-81
2022/07/07 06:19:08;;;;;;;;;;;;;;;;;;5015570;28;19981;-81
2022/07/07 06:21:34;;;;;;;;;;;;;;;;;;5015919;28;19925;-81
2022/07/07 06:24:01;;;;;;;;;;;;;;;;;;5017087;28;19933;-80
2022/07/07 06:26:27;;;;;;;;;;;;;;;;;;5016548;28;19958;-80
2022/07/07 06:28:54;;;;;;;;;;;;;;;;;;5016494;28;20021;-80
2022/07/07 06:31:22;;;;;;;;;;;;;;;;;;5016654;28;19926;-80
2022/07/07 06:33:48;;;;;;;;;;;;;;;;;;5016273;28;20415;-80
2022/07/07 06:36:15;;;;;;;;;;;;;;;;;;5016257;28;19972;-80
2022/07/07 06:38:41;;;;;;;;;;;;;;;;;;5015654;28;19980;-80
2022/07/07 06:41:08;;;;;;;;;;;;;;;;;;5014546;28;19925;-80
2022/07/07 06:43:34;;;;;;;;;;;;;;;;;;5015458;28;19926;-80
2022/07/07 06:46:01;;;;;;;;;;;;;;;;;;5016009;28;19960;-82
2022/07/07 06:48:29;;;;;;;;;;;;;;;;;;5015880;28;19925;-79
2022/07/07 06:50:55;;;;;;;;;;;;;;;;;;5014391;28;19925;-80
2022/07/07 06:53:22;;;;;;;;;;;;;;;;;;5014910;28;20531;-81
2022/07/07 06:55:48;;;;;;;;;;;;;;;;;;5015472;28;20023;-79
2022/07/07 06:58:15;;;;;;;;;;;;;;;;;;5015236;28;19929;-80
2022/07/07 07:00:41;;;;;;;;;;;;;;;;;;5015760;28;20357;-81
2022/07/07 07:03:08;;;;;;;;;;;;;;;;;;5015889;28;19925;-81
2022/07/07 07:05:36;;;;;;;;;;;;;;;;;;5015047;28;19926;-80
2022/07/07 07:08:02;;;;;;;;;;;;;;;;;;5027158;22;19957;-80
2022/07/07 07:10:29;;;;;;;;;;;;;;;;;;5019253;28;19926;-79
2022/07/07 07:12:55;;;;;;;;;;;;;;;;;;5019161;28;19983;-82
2022/07/07 07:15:22;;;;;;;;;;;;;;;;;;5015083;28;19972;-77
2022/07/07 07:17:48;;;;;;;;;;;;;;;;;;5014050;28;19957;-77
2022/07/07 07:20:15;;;;;;;;;;;;;;;;;;5010724;28;19934;-77
2022/07/07 07:22:43;;;;;;;;;;;;;;;;;;5009162;28;19933;-78
2022/07/07 07:25:10;;;;;;;;;;;;;;;;;;5013784;28;19961;-77
2022/07/07 07:27:37;;;;;;;;;;;;;;;;;;5011193;28;20339;-78
2022/07/07 07:30:04;;;;;;;;;;;;;;;;;;5010878;28;19929;-78
2022/07/07 07:32:30;;;;;;;;;;;;;;;;;;5012555;28;19979;-77
2022/07/07 07:34:57;;;;;;;;;;;;;;;;;;5012385;28;20024;-78
2022/07/07 07:37:23;;;;;;;;;;;;;;;;;;5013418;28;19979;-78
2022/07/07 07:39:51;;;;;;;;;;;;;;;;;;5013006;28;19932;-78
2022/07/07 07:42:18;;;;;;;;;;;;;;;;;;5012472;28;19930;-78
2022/07/07 07:47:28;;;;;;;;;;;;;;;;;;5011198;28;19933;-77
2022/07/07 07:49:55;;;;;;;;;;;;;;;;;;5011497;28;19926;-77
2022/07/07 07:52:21;;;;;;;;;;;;;;;;;;5017171;28;19980;-77
2022/07/07 07:54:48;;;;;;;;;;;;;;;;;;5031205;28;19926;-78
2022/07/07 07:57:15;;;;;;;;;;;;;;;;;;5026732;28;19969;-78
2022/07/07 07:59:42;;;;;;;;;;;;;;;;;;5018316;28;19930;-78
2022/07/07 08:02:09;;;;;;;;;;;;;;;;;;5016580;28;19965;-78
2022/07/07 08:04:35;;;;;;;;;;;;;;;;;;5014702;28;19976;-77
2022/07/07 08:07:02;;;;;;;;;;;;;;;;;;5015683;28;19969;-78
2022/07/07 08:09:28;;;;;;;;;;;;;;;;;;5015445;28;20024;-78
2022/07/07 08:11:55;;;;;;;;;;;;;;;;;;5015140;28;19925;-78
2022/07/07 08:14:23;;;;;;;;;;;;;;;;;;5015992;28;20020;-77
2022/07/07 08:16:49;;;;;;;;;;;;;;;;;;5015213;28;19979;-77
2022/07/07 08:19:17;;;;;;;;;;;;;;;;;;5014468;28;19933;-78
2022/07/07 08:21:46;;;;;;;;;;;;;;;;;;5015039;28;20296;-78
2022/07/07 08:24:12;;;;;;;;;;;;;;;;;;5014875;28;19932;-76
2022/07/07 08:26:39;;;;;;;;;;;;;;;;;;5014217;28;20016;-77
2022/07/07 08:29:06;;;;;;;;;;;;;;;;;;5013707;28;19929;-77
2022/07/07 08:31:34;;;;;;;;;;;;;;;;;;5013885;28;19972;-79
2022/07/07 08:34:00;;;;;;;;;;;;;;;;;;5014699;28;19963;-77
2022/07/07 08:36:27;;;;;;;;;;;;;;;;;;5016505;28;19971;-78
2022/07/07 08:38:53;;;;;;;;;;;;;;;;;;5016247;28;19948;-76
2022/07/07 08:41:20;;;;;;;;;;;;;;;;;;5014653;28;19936;-78
2022/07/07 08:43:47;;;;;;;;;;;;;;;;;;5015820;28;19925;-78
2022/07/07 08:46:13;;;;;;;;;;;;;;;;;;5016712;28;20370;-78
2022/07/07 08:48:41;;;;;;;;;;;;;;;;;;5014389;28;19979;-78
2022/07/07 08:51:08;;;;;;;;;;;;;;;;;;5014720;28;20419;-79
2022/07/07 08:53:37;;;;;;;;;;;;;;;;;;5015578;28;19968;-79
2022/07/07 08:56:04;;;;;;;;;;;;;;;;;;5012854;28;20036;-78
2022/07/07 08:58:31;;;;;;;;;;;;;;;;;;5012526;28;19929;-78
2022/07/07 09:00:58;;;;;;;;;;;;;;;;;;5012777;28;19925;-78
2022/07/07 09:03:27;;;;;;;;;;;;;;;;;;5013110;28;19925;-77
2022/07/07 09:05:55;;;;;;;;;;;;;;;;;;5014974;28;20451;-78
2022/07/07 09:08:22;;;;;;;;;;;;;;;;;;5015527;28;19937;-78
2022/07/07 09:10:48;;;;;;;;;;;;;;;;;;5014132;28;19969;-78
2022/07/07 09:13:23;;;;;;;;;;;;;;;;;;5014431;28;19969;-78
2022/07/07 09:15:50;;;;;;;;;;;;;;;;;;5013959;28;19925;-78
2022/07/07 09:18:28;;;;;;;;;;;;;;;;;;5015238;28;20031;-78
2022/07/07 09:20:56;;;;;;;;;;;;;;;;;;5022888;28;19936;-78
2022/07/07 09:23:22;;;;;;;;;;;;;;;;;;5020940;28;19926;-79
2022/07/07 09:25:48;;;;;;;;;;;;;;;;;;5014516;28;20024;-78
2022/07/07 09:28:15;;;;;;;;;;;;;;;;;;5015587;28;20016;-78
2022/07/07 09:30:42;;;;;;;;;;;;;;;;;;5014983;28;20048;-77
2022/07/07 09:33:09;;;;;;;;;;;;;;;;;;5014416;28;20442;-78
2022/07/07 09:38:25;;;;;;;;;;;;;;;;;;5014336;28;20316;-78
2022/07/07 09:40:53;;;;;;;;;;;;;;;;;;5014097;28;20012;-77
2022/07/07 09:43:19;;;;;;;;;;;;;;;;;;5014313;28;20012;-78
2022/07/07 09:45:47;;;;;;;;;;;;;;;;;;5014357;28;20068;-78
2022/07/07 09:48:14;;;;;;;;;;;;;;;;;;5015106;28;19972;-78
2022/07/07 09:50:40;;;;;;;;;;;;;;;;;;5013285;28;19932;-78
2022/07/07 09:53:07;;;;;;;;;;;;;;;;;;5015342;28;20432;-76
2022/07/07 09:55:35;;;;;;;;;;;;;;;;;;5023650;28;19931;-77
2022/07/07 09:58:02;;;;;;;;;;;;;;;;;;5026441;28;19925;-76
2022/07/07 10:00:28;;;;;;;;;;;;;;;;;;5026366;28;19913;-77
2022/07/07 10:02:55;;;;;;;;;;;;;;;;;;5024908;28;19925;-77
2022/07/07 10:05:23;;;;;;;;;;;;;;;;;;5026150;28;19925;-77
2022/07/07 10:07:50;;;;;;;;;;;;;;;;;;5026184;28;19925;-79
2022/07/07 10:10:21;;;;;;;;;;;;;;;;;;5030992;28;19937;-78
2022/07/07 10:12:52;;;;;;;;;;;;;;;;;;5029063;28;20211;-79
2022/07/07 10:15:19;;;;;;;;;;;;;;;;;;5017927;28;19926;-78
2022/07/07 10:17:46;;;;;;;;;;;;;;;;;;5012029;28;19987;-78
2022/07/07 10:20:12;;;;;;;;;;;;;;;;;;5012355;28;19926;-78
2022/07/07 10:22:40;;;;;;;;;;;;;;;;;;5012421;28;20392;-77
2022/07/07 10:25:08;;;;;;;;;;;;;;;;;;5013266;28;20012;-77
2022/07/07 10:27:34;;;;;;;;;;;;;;;;;;5013261;28;20013;-76
2022/07/07 10:30:02;;;;;;;;;;;;;;;;;;5019300;28;19926;-77
2022/07/07 10:32:30;;;;;;;;;;;;;;;;;;5019323;28;19958;-76
2022/07/07 10:34:58;;;;;;;;;;;;;;;;;;5017873;28;19980;-77
2022/07/07 10:37:25;;;;;;;;;;;;;;;;;;5010984;28;20460;-77
2022/07/07 10:39:54;;;;;;;;;;;;;;;;;;5011186;28;19971;-77
2022/07/07 10:42:30;;;;;;;;;;;;;;;;;;5011539;28;19933;-77
2022/07/07 10:44:56;;;;;;;;;;;;;;;;;;5011694;28;19925;-77
2022/07/07 10:47:31;;;;;;;;;;;;;;;;;;5011058;28;19925;-77
2022/07/07 10:49:58;;;;;;;;;;;;;;;;;;5010952;28;19925;-77
2022/07/07 10:52:25;;;;;;;;;;;;;;;;;;5010786;28;20011;-77
2022/07/07 10:54:53;;;;;;;;;;;;;;;;;;5010821;28;19932;-77
2022/07/07 10:57:20;;;;;;;;;;;;;;;;;;5011237;28;20008;-77
2022/07/07 11:00:08;;;;;;;;;;;;;;;;;;5011445;28;19936;-77
2022/07/07 11:02:37;;;;;;;;;;;;;;;;;;5012057;28;19979;-77
2022/07/07 11:05:04;;;;;;;;;;;;;;;;;;5017010;28;19993;-80
2022/07/07 11:07:31;;;;;;;;;;;;;;;;;;5017058;28;19925;-81
2022/07/07 11:09:58;;;;;;;;;;;;;;;;;;5017386;28;20301;-82
2022/07/07 11:12:34;;;;;;;;;;;;;;;;;;5016064;28;19948;-81
2022/07/07 11:15:16;;;;;;;;;;;;;;;;;;5016264;28;19991;-81
2022/07/07 11:17:44;;;;;;;;;;;;;;;;;;5018065;28;19968;-80
2022/07/07 11:20:14;;;;;;;;;;;;;;;;;;5017800;28;19972;-80
2022/07/07 11:22:43;;;;;;;;;;;;;;;;;;5017861;28;19929;-80
2022/07/07 11:25:10;;;;;;;;;;;;;;;;;;5017049;28;20017;-81
2022/07/07 11:27:37;;;;;;;;;;;;;;;;;;5016809;28;19932;-81
2022/07/07 11:30:04;;;;;;;;;;;;;;;;;;5018691;28;20004;-80
2022/07/07 11:32:35;;;;;;;;;;;;;;;;;;5019069;28;19969;-80
2022/07/07 11:35:05;;;;;;;;;;;;;;;;;;5019897;28;19976;-80
2022/07/07 11:37:32;;;;;;;;;;;;;;;;;;5015074;28;20384;-80
2022/07/07 11:39:58;;;;;;;;;;;;;;;;;;5019074;28;19984;-81
2022/07/07 11:42:25;;;;;;;;;;;;;;;;;;5020057;28;19976;-79
2022/07/07 11:44:51;;;;;;;;;;;;;;;;;;5019862;28;19976;-80
2022/07/07 11:47:18;;;;;;;;;;;;;;;;;;5018734;28;20419;-80
2022/07/07 11:49:45;;;;;;;;;;;;;;;;;;5019015;28;19992;-80
2022/07/07 11:52:16;;;;;;;;;;;;;;;;;;5019152;28;19956;-80
2022/07/07 11:54:47;;;;;;;;;;;;;;;;;;5019694;28;19975;-81
2022/07/07 11:57:25;;;;;;;;;;;;;;;;;;5019416;28;19929;-80
2022/07/07 11:59:51;;;;;;;;;;;;;;;;;;5019329;28;19925;-81
2022/07/07 12:02:18;;;;;;;;;;;;;;;;;;5019318;28;20019;-80
2022/07/07 12:04:45;;;;;;;;;;;;;;;;;;5019043;28;19932;-81
2022/07/07 12:07:11;;;;;;;;;;;;;;;;;;5018913;28;19965;-80
2022/07/07 12:09:45;;;;;;;;;;;;;;;;;;5018550;28;19965;-80
2022/07/07 12:12:16;;;;;;;;;;;;;;;;;;5019469;28;19980;-81
2022/07/07 12:14:43;;;;;;;;;;;;;;;;;;5019411;28;20355;-80
2022/07/07 12:17:09;;;;;;;;;;;;;;;;;;5019180;28;19926;-81
2022/07/07 12:19:45;;;;;;;;;;;;;;;;;;5020438;28;19925;-79
2022/07/07 12:22:12;;;;;;;;;;;;;;;;;;5021586;28;19931;-81
2022/07/07 12:24:41;;;;;;;;;;;;;;;;;;5019504;28;19981;-80
2022/07/07 12:27:16;;;;;;;;;;;;;;;;;;5019669;28;19993;-79
2022/07/07 12:29:57;;;;;;;;;;;;;;;;;;5018104;28;20016;-80
2022/07/07 12:32:24;;;;;;;;;;;;;;;;;;5017426;28;19964;-81
2022/07/07 12:34:50;;;;;;;;;;;;;;;;;;5018081;28;19925;-81
2022/07/07 12:37:17;;;;;;;;;;;;;;;;;;5018231;28;19979;-80
2022/07/07 12:39:45;;;;;;;;;;;;;;;;;;5017672;28;20241;-81
2022/07/07 12:42:11;;;;;;;;;;;;;;;;;;5019609;28;20000;-81
2022/07/07 12:44:38;;;;;;;;;;;;;;;;;;5019972;28;19940;-81
2022/07/07 12:47:04;;;;;;;;;;;;;;;;;;5019486;28;19929;-81
2022/07/07 12:49:31;;;;;;;;;;;;;;;;;;5018345;28;19968;-81
2022/07/07 12:51:57;;;;;;;;;;;;;;;;;;5019745;28;19984;-80
2022/07/07 12:54:25;;;;;;;;;;;;;;;;;;5016346;28;19983;-80
2022/07/07 12:57:00;;;;;;;;;;;;;;;;;;5017372;28;20337;-80
2022/07/07 12:59:26;;;;;;;;;;;;;;;;;;5017671;28;19926;-80
2022/07/07 13:01:53;;;;;;;;;;;;;;;;;;5017137;28;19987;-81
2022/07/07 13:04:20;;;;;;;;;;;;;;;;;;5018383;28;19968;-81
2022/07/07 13:06:48;;;;;;;;;;;;;;;;;;5019704;28;19926;-80
2022/07/07 13:09:15;;;;;;;;;;;;;;;;;;5145463;22;19948;-63
2022/07/07 13:11:55;;;;;;;;;;;;;;;;;;;;;
2022/07/07 13:17:22;;;;;;;;;;;;;;;;;;5561766;22;19925;-61
2022/07/07 13:19:50;;;;;;;;;;;;;;;;;;5011743;28;19926;-59
2022/07/07 13:22:17;;;;;;;;;;;;;;;;;;5012310;28;20428;-59
2022/07/07 13:24:43;;;;;;;;;;;;;;;;;;5012382;28;19925;-61
2022/07/07 13:27:10;;;;;;;;;;;;;;;;;;5012964;28;20004;-60
2022/07/07 13:29:36;;;;;;;;;;;;;;;;;;5012684;28;20094;-59
2022/07/07 13:32:03;;;;;;;;;;;;;;;;;;5012464;28;19926;-60
2022/07/07 13:34:31;;;;;;;;;;;;;;;;;;5012285;28;19976;-61
2022/07/07 13:36:58;;;;;;;;;;;;;;;;;;5012701;28;20297;-60
2022/07/07 13:39:25;;;;;;;;;;;;;;;;;;5012057;28;19931;-59
2022/07/07 13:41:51;;;;;;;;;;;;;;;;;;5012106;28;19929;-60
2022/07/07 13:44:18;;;;;;;;;;;;;;;;;;5013553;28;19984;-61
2022/07/07 13:46:46;;;;;;;;;;;;;;;;;;5012690;28;19925;-61
2022/07/07 13:49:12;;;;;;;;;;;;;;;;;;5011755;28;19996;-61
2022/07/07 13:51:40;;;;;;;;;;;;;;;;;;5011907;28;20015;-60
2022/07/07 13:54:07;;;;;;;;;;;;;;;;;;5011809;28;19929;-59
2022/07/07 13:56:33;;;;;;;;;;;;;;;;;;5011876;28;19952;-60
2022/07/07 13:59:00;;;;;;;;;;;;;;;;;;5011490;28;19997;-60
2022/07/07 14:01:26;;;;;;;;;;;;;;;;;;5011661;28;20345;-62
2022/07/07 14:03:53;;;;;;;;;;;;;;;;;;5011834;28;19926;-61
2022/07/07 14:06:19;;;;;;;;;;;;;;;;;;5011475;28;20453;-61
2022/07/07 14:08:48;;;;;;;;;;;;;;;;;;5011558;28;19984;-61
2022/07/07 14:11:14;;;;;;;;;;;;;;;;;;5011853;28;20567;-60
2022/07/07 14:13:41;;;;;;;;;;;;;;;;;;5011754;28;19929;-61
2022/07/07 14:16:07;;;;;;;;;;;;;;;;;;5011515;28;20015;-61
2022/07/07 14:18:36;;;;;;;;;;;;;;;;;;5008885;23;21988;-64
2022/07/07 14:21:03;;;;;;;;;;;;;;;;;;5020880;28;19926;-64
2022/07/07 14:23:29;;;;;;;;;;;;;;;;;;5020380;28;19925;-64
2022/07/07 14:25:57;;;;;;;;;;;;;;;;;;5031677;28;19929;-65
2022/07/07 14:28:24;;;;;;;;;;;;;;;;;;5039298;28;19987;-65
2022/07/07 14:30:50;;;;;;;;;;;;;;;;;;5039489;28;19925;-64
2022/07/07 14:33:17;;;;;;;;;;;;;;;;;;5040014;28;19929;-62
2022/07/07 14:35:43;;;;;;;;;;;;;;;;;;5040361;28;19989;-64
2022/07/07 14:38:10;;;;;;;;;;;;;;;;;;5039467;28;19965;-64
2022/07/07 14:40:36;;;;;;;;;;;;;;;;;;5039322;28;20321;-64
2022/07/07 14:43:04;;;;;;;;;;;;;;;;;;5039215;28;19948;-64
2022/07/07 14:45:31;;;;;;;;;;;;;;;;;;5038885;28;20373;-64
2022/07/07 14:47:57;;;;;;;;;;;;;;;;;;5039258;28;19991;-64
2022/07/07 14:50:24;;;;;;;;;;;;;;;;;;5039538;28;19925;-64
2022/07/07 14:52:50;;;;;;;;;;;;;;;;;;5040840;28;19925;-65
2022/07/07 14:55:18;;;;;;;;;;;;;;;;;;5039805;28;20416;-64
2022/07/07 14:57:44;;;;;;;;;;;;;;;;;;5039658;28;19991;-64
2022/07/07 15:00:13;;;;;;;;;;;;;;;;;;5039822;28;20000;-64
2022/07/07 15:02:39;;;;;;;;;;;;;;;;;;5039113;28;19925;-64
2022/07/07 15:05:06;;;;;;;;;;;;;;;;;;5039362;28;19971;-64
2022/07/07 15:07:32;;;;;;;;;;;;;;;;;;5038623;28;19925;-63
2022/07/07 15:09:59;;;;;;;;;;;;;;;;;;5039808;28;19992;-64
2022/07/07 15:12:25;;;;;;;;;;;;;;;;;;5038704;28;19929;-64
2022/07/07 15:14:54;;;;;;;;;;;;;;;;;;5040330;28;19929;-63
2022/07/07 15:17:22;;;;;;;;;;;;;;;;;;5039418;28;19929;-63
2022/07/07 15:19:49;;;;;;;;;;;;;;;;;;5039681;28;19925;-64
2022/07/07 15:22:15;;;;;;;;;;;;;;;;;;5039809;28;19929;-63
2022/07/07 15:24:42;;;;;;;;;;;;;;;;;;5035408;28;19995;-63
2022/07/07 15:27:08;;;;;;;;;;;;;;;;;;5039324;28;19987;-63
2022/07/07 15:29:35;;;;;;;;;;;;;;;;;;5039690;28;19984;-63
2022/07/07 15:32:01;;;;;;;;;;;;;;;;;;5039738;28;19983;-63
2022/07/07 15:34:29;;;;;;;;;;;;;;;;;;5039713;28;20355;-64
2022/07/07 15:36:56;;;;;;;;;;;;;;;;;;5039055;28;20336;-64
2022/07/07 15:39:22;;;;;;;;;;;;;;;;;;5038866;28;19976;-64
2022/07/07 15:41:49;;;;;;;;;;;;;;;;;;5037476;28;19925;-64
2022/07/07 15:44:16;;;;;;;;;;;;;;;;;;5039255;28;19993;-64
2022/07/07 15:46:42;;;;;;;;;;;;;;;;;;5029878;28;19987;-62
2022/07/07 15:49:09;;;;;;;;;;;;;;;;;;5030333;28;19979;-62
2022/07/07 15:51:37;;;;;;;;;;;;;;;;;;5029956;28;19932;-63
2022/07/07 15:54:04;;;;;;;;;;;;;;;;;;5030039;28;19937;-62
2022/07/07 15:56:30;;;;;;;;;;;;;;;;;;5029536;28;20306;-62
2022/07/07 15:58:57;;;;;;;;;;;;;;;;;;5030331;28;19987;-63
2022/07/07 16:01:23;;;;;;;;;;;;;;;;;;5029758;28;19927;-63
2022/07/07 16:06:33;;;;;;;;;;;;;;;;;;5029662;28;19936;-63
2022/07/07 16:09:01;;;;;;;;;;;;;;;;;;5029306;28;19965;-63
2022/07/07 16:11:28;;;;;;;;;;;;;;;;;;5029462;28;19929;-63
2022/07/07 16:13:56;;;;;;;;;;;;;;;;;;5029680;28;20340;-63
2022/07/07 16:16:23;;;;;;;;;;;;;;;;;;5033171;28;19925;-63
2022/07/07 16:18:51;;;;;;;;;;;;;;;;;;5032942;28;19926;-63
2022/07/07 16:21:17;;;;;;;;;;;;;;;;;;5033450;28;19925;-64
2022/07/07 16:23:44;;;;;;;;;;;;;;;;;;5039134;28;19926;-64
2022/07/07 16:26:12;;;;;;;;;;;;;;;;;;5035952;28;19925;-63
2022/07/07 16:28:38;;;;;;;;;;;;;;;;;;5036326;28;19929;-64
2022/07/07 16:31:05;;;;;;;;;;;;;;;;;;5036504;28;20325;-64
2022/07/07 16:33:31;;;;;;;;;;;;;;;;;;5036658;28;20115;-64
2022/07/07 16:35:58;;;;;;;;;;;;;;;;;;5036403;28;19929;-64
2022/07/07 16:38:24;;;;;;;;;;;;;;;;;;5037599;28;20345;-64
2022/07/07 16:40:51;;;;;;;;;;;;;;;;;;5037139;28;20370;-62
2022/07/07 16:43:19;;;;;;;;;;;;;;;;;;5036879;28;19929;-62
2022/07/07 16:45:45;;;;;;;;;;;;;;;;;;5037567;28;20397;-62
2022/07/07 16:48:14;;;;;;;;;;;;;;;;;;5037122;28;19932;-63
2022/07/07 16:50:41;;;;;;;;;;;;;;;;;;5038547;28;19998;-62
2022/07/07 16:53:08;;;;;;;;;;;;;;;;;;5037539;28;19984;-63
2022/07/07 16:55:34;;;;;;;;;;;;;;;;;;5037818;28;19928;-63
2022/07/07 16:58:01;;;;;;;;;;;;;;;;;;5038206;28;19956;-63